Time;durP1;ratioP1;P1;durP2;ratioP2;P2;SDS_P1;SDS_P2;PMS_P1;PMS_P2;Temp;Humidity;BMP_temperature;BMP_pressure;BME280_temperature;BME280_humidity;BME280_pressure;Samples;Min_cycle;Max_cycle;Signal;HPM_P1;HPM_P2
2021/11/20 00:00:07;;;;;;;7.20;5.10;;;;;;;;;;5034000;28;20489;-56
2021/11/20 00:02:35;;;;;;;8.67;5.20;;;;;;;;;;5033613;28;20476;-54
2021/11/20 00:05:04;;;;;;;9.20;5.50;;;;;;;;;;5033861;28;20473;-55
2021/11/20 00:07:32;;;;;;;7.80;4.80;;;;;;;;;;5033470;28;20448;-55
2021/11/20 00:09:59;;;;;;;9.20;5.00;;;;;;;;;;5033482;28;20484;-55
2021/11/20 00:12:28;;;;;;;6.87;5.20;;;;;;;;;;5033303;28;20532;-55
2021/11/20 00:14:56;;;;;;;8.70;5.53;;;;;;;;;;5033406;28;20525;-55
2021/11/20 00:17:23;;;;;;;7.00;5.07;;;;;;;;;;5032727;28;20481;-54
2021/11/20 00:19:51;;;;;;;11.77;5.03;;;;;;;;;;5033004;28;20488;-56
2021/11/20 00:22:22;;;;;;;10.57;5.60;;;;;;;;;;5032864;28;20493;-56
2021/11/20 00:24:51;;;;;;;9.40;5.07;;;;;;;;;;5035619;28;20561;-55
2021/11/20 00:27:22;;;;;;;10.60;5.97;;;;;;;;;;5037510;28;20570;-55
2021/11/20 00:30:00;;;;;;;6.87;5.23;;;;;;;;;;5037133;28;20445;-55
2021/11/20 00:32:29;;;;;;;8.77;5.53;;;;;;;;;;5037384;28;20805;-55
2021/11/20 00:34:58;;;;;;;9.00;4.90;;;;;;;;;;5036724;28;21083;-55
2021/11/20 00:37:27;;;;;;;10.40;5.50;;;;;;;;;;5037065;28;20543;-54
2021/11/20 00:39:54;;;;;;;9.80;5.20;;;;;;;;;;5036979;28;20480;-56
2021/11/20 00:42:22;;;;;;;8.93;5.57;;;;;;;;;;5036803;28;20551;-56
2021/11/20 00:44:51;;;;;;;7.87;5.20;;;;;;;;;;5037062;28;20882;-55
2021/11/20 00:47:19;;;;;;;9.53;5.93;;;;;;;;;;5036984;28;20535;-55
2021/11/20 00:49:49;;;;;;;14.40;6.07;;;;;;;;;;5036876;28;20456;-55
2021/11/20 00:52:17;;;;;;;8.20;5.40;;;;;;;;;;5036846;28;20433;-54
2021/11/20 00:54:46;;;;;;;10.20;5.97;;;;;;;;;;5036804;28;20583;-55
2021/11/20 00:57:13;;;;;;;9.63;6.00;;;;;;;;;;5037149;28;20488;-56
2021/11/20 00:59:41;;;;;;;11.07;6.13;;;;;;;;;;5036818;28;20911;-55
2021/11/20 01:02:08;;;;;;;12.67;6.97;;;;;;;;;;5036732;28;20489;-57
2021/11/20 01:04:36;;;;;;;7.70;5.60;;;;;;;;;;5036756;28;21015;-56
2021/11/20 01:07:04;;;;;;;7.00;5.43;;;;;;;;;;5036379;28;20904;-56
2021/11/20 01:09:33;;;;;;;8.73;7.07;;;;;;;;;;5036662;28;20527;-56
2021/11/20 01:12:03;;;;;;;11.07;6.13;;;;;;;;;;5036677;28;20863;-55
2021/11/20 01:14:31;;;;;;;10.17;5.83;;;;;;;;;;5036246;28;20584;-56
2021/11/20 01:17:00;;;;;;;8.70;5.80;;;;;;;;;;5036171;28;20480;-56
2021/11/20 01:19:29;;;;;;;8.60;6.00;;;;;;;;;;5036348;28;20457;-55
2021/11/20 01:21:58;;;;;;;9.13;6.63;;;;;;;;;;5036106;28;20448;-54
2021/11/20 01:24:25;;;;;;;10.73;7.50;;;;;;;;;;5035913;28;20926;-56
2021/11/20 01:26:54;;;;;;;10.47;7.07;;;;;;;;;;5036526;28;20573;-55
2021/11/20 01:29:23;;;;;;;11.23;7.37;;;;;;;;;;5036365;28;20814;-55
2021/11/20 01:31:53;;;;;;;12.90;6.53;;;;;;;;;;5036190;28;20532;-55
2021/11/20 01:34:22;;;;;;;12.60;8.17;;;;;;;;;;5035747;28;21031;-55
2021/11/20 01:36:50;;;;;;;11.77;6.80;;;;;;;;;;5035329;28;20528;-54
2021/11/20 01:39:20;;;;;;;12.37;6.50;;;;;;;;;;5035838;28;20535;-55
2021/11/20 01:41:48;;;;;;;14.00;7.37;;;;;;;;;;5035989;28;20532;-55
2021/11/20 01:44:17;;;;;;;9.73;6.97;;;;;;;;;;5035318;28;20555;-54
2021/11/20 01:46:48;;;;;;;13.70;6.77;;;;;;;;;;5035606;28;20541;-55
2021/11/20 01:49:18;;;;;;;10.97;7.57;;;;;;;;;;5035598;28;20461;-55
2021/11/20 01:51:47;;;;;;;10.53;7.87;;;;;;;;;;5035723;28;20477;-55
2021/11/20 01:54:23;;;;;;;9.27;7.30;;;;;;;;;;5035666;28;20575;-55
2021/11/20 01:56:53;;;;;;;14.03;7.00;;;;;;;;;;5036369;28;20834;-56
2021/11/20 01:59:25;;;;;;;9.30;8.17;;;;;;;;;;5035215;28;20457;-55
2021/11/20 02:01:56;;;;;;;8.60;7.67;;;;;;;;;;5035167;28;20537;-55
2021/11/20 02:04:27;;;;;;;9.97;7.00;;;;;;;;;;5035812;28;20557;-55
2021/11/20 02:06:57;;;;;;;16.77;8.77;;;;;;;;;;5035488;28;20876;-55
2021/11/20 02:09:35;;;;;;;8.90;8.00;;;;;;;;;;5034923;28;20988;-54
2021/11/20 02:12:05;;;;;;;7.83;6.53;;;;;;;;;;5035171;28;20513;-55
2021/11/20 02:14:33;;;;;;;10.07;7.30;;;;;;;;;;5035287;28;20567;-55
2021/11/20 02:17:03;;;;;;;10.77;7.60;;;;;;;;;;5033520;28;20535;-55
2021/11/20 02:19:33;;;;;;;8.03;7.23;;;;;;;;;;5034994;28;20523;-55
2021/11/20 02:22:05;;;;;;;8.03;6.80;;;;;;;;;;5034919;28;20434;-55
2021/11/20 02:24:32;;;;;;;10.13;6.83;;;;;;;;;;5034683;28;20556;-54
2021/11/20 02:27:03;;;;;;;12.20;7.47;;;;;;;;;;5034933;28;21008;-54
2021/11/20 02:29:30;;;;;;;11.60;8.03;;;;;;;;;;5034711;28;20516;-54
2021/11/20 02:32:00;;;;;;;7.70;6.53;;;;;;;;;;5034723;28;20548;-54
2021/11/20 02:34:33;;;;;;;12.33;7.00;;;;;;;;;;5034772;28;20485;-55
2021/11/20 02:37:01;;;;;;;8.10;7.30;;;;;;;;;;5034541;28;21040;-55
2021/11/20 02:39:31;;;;;;;11.10;7.67;;;;;;;;;;5034904;28;20480;-55
2021/11/20 02:42:00;;;;;;;11.97;6.70;;;;;;;;;;5034457;28;20489;-54
2021/11/20 02:44:29;;;;;;;12.50;7.50;;;;;;;;;;5034382;28;20965;-55
2021/11/20 02:46:59;;;;;;;9.60;6.37;;;;;;;;;;5033750;28;20536;-55
2021/11/20 02:49:27;;;;;;;9.50;7.00;;;;;;;;;;5033933;28;20506;-55
2021/11/20 02:51:56;;;;;;;10.03;7.37;;;;;;;;;;5034500;28;20540;-56
2021/11/20 02:54:24;;;;;;;11.10;7.60;;;;;;;;;;5034647;28;20517;-56
2021/11/20 02:56:53;;;;;;;7.20;6.50;;;;;;;;;;5034692;28;20481;-56
2021/11/20 02:59:20;;;;;;;11.33;7.13;;;;;;;;;;5034336;28;20953;-56
2021/11/20 03:01:49;;;;;;;8.70;7.00;;;;;;;;;;5034295;28;20480;-55
2021/11/20 03:04:18;;;;;;;9.33;7.10;;;;;;;;;;5034053;28;20536;-55
2021/11/20 03:06:48;;;;;;;9.20;6.83;;;;;;;;;;5034285;28;20859;-55
2021/11/20 03:09:16;;;;;;;9.43;6.83;;;;;;;;;;5034426;28;20781;-56
2021/11/20 03:11:43;;;;;;;7.50;6.63;;;;;;;;;;5034075;28;20477;-56
2021/11/20 03:14:14;;;;;;;9.27;6.90;;;;;;;;;;5033783;28;20564;-56
2021/11/20 03:16:42;;;;;;;7.47;6.67;;;;;;;;;;5033818;28;20856;-55
2021/11/20 03:19:09;;;;;;;10.70;6.60;;;;;;;;;;5033888;28;20555;-55
2021/11/20 03:21:37;;;;;;;8.60;7.67;;;;;;;;;;5033729;28;20469;-54
2021/11/20 03:24:08;;;;;;;9.90;6.80;;;;;;;;;;5033862;28;20536;-55
2021/11/20 03:26:35;;;;;;;9.50;6.30;;;;;;;;;;5033704;28;20520;-54
2021/11/20 03:29:02;;;;;;;9.57;5.80;;;;;;;;;;5033835;28;20528;-55
2021/11/20 03:31:30;;;;;;;11.57;6.53;;;;;;;;;;5033486;28;20487;-54
2021/11/20 03:33:58;;;;;;;9.60;6.80;;;;;;;;;;5033588;28;20557;-55
2021/11/20 03:36:25;;;;;;;10.10;6.73;;;;;;;;;;5033661;28;20491;-55
2021/11/20 03:38:53;;;;;;;10.63;6.60;;;;;;;;;;5033595;28;20886;-55
2021/11/20 03:41:22;;;;;;;7.93;5.83;;;;;;;;;;5033774;28;20479;-55
2021/11/20 03:43:49;;;;;;;9.73;6.57;;;;;;;;;;5033473;28;20961;-55
2021/11/20 03:46:17;;;;;;;11.13;6.13;;;;;;;;;;5033578;28;20548;-54
2021/11/20 03:48:44;;;;;;;10.20;6.20;;;;;;;;;;5035900;28;20498;-55
2021/11/20 03:51:11;;;;;;;9.00;6.57;;;;;;;;;;5035502;28;20528;-55
2021/11/20 03:53:39;;;;;;;10.10;6.23;;;;;;;;;;5035884;28;20433;-55
2021/11/20 03:56:06;;;;;;;8.27;6.83;;;;;;;;;;5034431;28;20575;-56
2021/11/20 03:58:37;;;;;;;8.43;5.70;;;;;;;;;;5033191;28;20965;-56
2021/11/20 04:01:06;;;;;;;8.70;5.07;;;;;;;;;;5033611;28;20437;-55
2021/11/20 04:03:34;;;;;;;13.23;6.50;;;;;;;;;;5033625;28;20452;-55
2021/11/20 04:08:55;;;;;;;6.53;5.90;;;;;;;;;;5126594;27;20551;-56
2021/11/20 04:11:23;;;;;;;8.70;6.80;;;;;;;;;;5120793;28;20871;-56
2021/11/20 04:13:51;;;;;;;10.40;5.63;;;;;;;;;;5118935;28;20469;-56
2021/11/20 04:16:19;;;;;;;8.40;5.27;;;;;;;;;;5116172;28;20499;-57
2021/11/20 04:18:46;;;;;;;7.23;5.93;;;;;;;;;;5115995;28;20465;-57
2021/11/20 04:21:14;;;;;;;8.70;6.73;;;;;;;;;;5105546;22;20542;-59
2021/11/20 04:23:45;;;;;;;7.17;6.47;;;;;;;;;;5050612;28;20479;-58
2021/11/20 04:26:14;;;;;;;7.27;6.53;;;;;;;;;;5050326;28;20432;-57
2021/11/20 04:28:41;;;;;;;12.23;7.10;;;;;;;;;;5050141;28;20516;-58
2021/11/20 04:31:09;;;;;;;8.70;6.50;;;;;;;;;;5050487;28;20488;-58
2021/11/20 04:33:37;;;;;;;8.83;6.40;;;;;;;;;;5050259;28;20543;-58
2021/11/20 04:36:05;;;;;;;13.57;7.17;;;;;;;;;;5050429;28;20453;-58
2021/11/20 04:38:32;;;;;;;8.80;6.10;;;;;;;;;;5050427;28;20990;-58
2021/11/20 04:41:00;;;;;;;8.60;6.97;;;;;;;;;;5050299;28;20571;-58
2021/11/20 04:43:29;;;;;;;7.30;6.60;;;;;;;;;;5050672;28;20491;-58
2021/11/20 04:45:56;;;;;;;7.23;6.00;;;;;;;;;;5050469;28;20471;-58
2021/11/20 04:48:24;;;;;;;9.10;7.07;;;;;;;;;;5050108;28;20567;-57
2021/11/20 04:50:53;;;;;;;9.77;6.73;;;;;;;;;;5050429;28;20809;-57
2021/11/20 04:53:21;;;;;;;12.03;8.07;;;;;;;;;;5050134;28;20536;-57
2021/11/20 04:55:49;;;;;;;11.47;8.07;;;;;;;;;;5050252;28;20477;-58
2021/11/20 04:58:16;;;;;;;11.20;7.90;;;;;;;;;;5049846;28;20536;-58
2021/11/20 05:00:47;;;;;;;11.73;9.97;;;;;;;;;;5049848;28;20555;-56
2021/11/20 05:03:15;;;;;;;11.00;9.10;;;;;;;;;;5049934;28;20433;-58
2021/11/20 05:05:43;;;;;;;15.13;9.40;;;;;;;;;;5049700;28;20484;-57
2021/11/20 05:08:11;;;;;;;13.80;10.00;;;;;;;;;;5049429;28;20519;-57
2021/11/20 05:10:40;;;;;;;12.30;10.20;;;;;;;;;;5049976;28;20464;-57
2021/11/20 05:13:08;;;;;;;18.07;10.70;;;;;;;;;;5049274;28;20449;-57
2021/11/20 05:15:36;;;;;;;14.70;12.30;;;;;;;;;;5049307;28;20476;-57
2021/11/20 05:18:05;;;;;;;19.60;13.30;;;;;;;;;;5048686;28;20445;-57
2021/11/20 05:20:33;;;;;;;17.03;13.70;;;;;;;;;;5035824;28;20505;-58
2021/11/20 05:23:00;;;;;;;19.63;13.47;;;;;;;;;;5036015;28;20928;-58
2021/11/20 05:25:28;;;;;;;14.70;12.50;;;;;;;;;;5036047;28;20536;-57
2021/11/20 05:27:55;;;;;;;19.30;15.50;;;;;;;;;;5035957;28;20564;-58
2021/11/20 05:30:27;;;;;;;15.50;13.83;;;;;;;;;;5036413;28;20861;-58
2021/11/20 05:32:55;;;;;;;20.33;15.70;;;;;;;;;;5036445;28;20434;-58
2021/11/20 05:35:24;;;;;;;19.27;14.50;;;;;;;;;;5036007;28;20528;-58
2021/11/20 05:37:52;;;;;;;18.60;15.70;;;;;;;;;;5035602;28;20883;-58
2021/11/20 05:40:20;;;;;;;20.63;15.60;;;;;;;;;;5035399;28;20485;-58
2021/11/20 05:42:48;;;;;;;23.40;16.10;;;;;;;;;;5035493;28;20553;-57
2021/11/20 05:45:18;;;;;;;21.50;16.70;;;;;;;;;;5035503;28;20484;-58
2021/11/20 05:47:46;;;;;;;20.47;16.80;;;;;;;;;;5035294;28;20511;-58
2021/11/20 05:50:16;;;;;;;20.93;17.43;;;;;;;;;;5035587;28;20481;-58
2021/11/20 05:52:45;;;;;;;24.73;18.80;;;;;;;;;;5035909;28;20545;-58
2021/11/20 05:55:12;;;;;;;21.87;16.03;;;;;;;;;;5035590;28;20548;-58
2021/11/20 05:57:40;;;;;;;28.67;19.17;;;;;;;;;;5035603;28;20477;-58
2021/11/20 06:00:08;;;;;;;24.70;19.73;;;;;;;;;;5035173;28;20464;-58
2021/11/20 06:02:35;;;;;;;25.63;19.97;;;;;;;;;;5035186;28;20534;-58
2021/11/20 06:05:03;;;;;;;23.70;19.57;;;;;;;;;;5035469;28;20484;-58
2021/11/20 06:07:30;;;;;;;28.60;20.60;;;;;;;;;;5034996;28;20559;-58
2021/11/20 06:09:59;;;;;;;26.50;19.17;;;;;;;;;;5035353;28;20536;-58
2021/11/20 06:12:27;;;;;;;31.40;20.10;;;;;;;;;;5035273;28;20549;-58
2021/11/20 06:14:55;;;;;;;29.77;19.90;;;;;;;;;;5034902;28;20540;-58
2021/11/20 06:17:22;;;;;;;29.97;21.57;;;;;;;;;;5035084;28;20484;-58
2021/11/20 06:19:50;;;;;;;28.30;21.43;;;;;;;;;;5035142;28;20518;-58
2021/11/20 06:22:20;;;;;;;27.63;21.70;;;;;;;;;;5034626;28;20511;-58
2021/11/20 06:24:48;;;;;;;27.73;20.57;;;;;;;;;;5035050;28;20442;-58
2021/11/20 06:27:17;;;;;;;25.90;21.20;;;;;;;;;;5034617;28;20492;-57
2021/11/20 06:29:45;;;;;;;29.87;21.27;;;;;;;;;;5034723;28;20464;-58
2021/11/20 06:32:12;;;;;;;23.33;19.70;;;;;;;;;;5033981;28;20981;-57
2021/11/20 06:34:40;;;;;;;34.63;21.83;;;;;;;;;;5034435;28;20983;-58
2021/11/20 06:37:07;;;;;;;27.10;21.60;;;;;;;;;;5034408;28;20543;-58
2021/11/20 06:39:35;;;;;;;26.80;20.70;;;;;;;;;;5034427;28;20524;-58
2021/11/20 06:42:05;;;;;;;30.70;22.03;;;;;;;;;;5034250;28;20473;-58
2021/11/20 06:44:34;;;;;;;29.90;22.40;;;;;;;;;;5034314;28;20955;-58
2021/11/20 06:47:02;;;;;;;26.33;22.37;;;;;;;;;;5034667;28;20480;-57
2021/11/20 06:49:29;;;;;;;25.50;20.33;;;;;;;;;;5034205;28;21074;-58
2021/11/20 06:51:57;;;;;;;29.77;20.87;;;;;;;;;;5034100;28;21034;-58
2021/11/20 06:54:24;;;;;;;25.27;20.43;;;;;;;;;;5034545;28;20527;-57
2021/11/20 06:56:53;;;;;;;27.33;22.00;;;;;;;;;;5034418;28;20485;-57
2021/11/20 07:02:04;;;;;;;29.47;20.90;;;;;;;;;;5033684;28;20459;-58
2021/11/20 07:04:32;;;;;;;24.27;19.90;;;;;;;;;;5034941;28;20539;-57
2021/11/20 07:07:01;;;;;;;28.17;21.50;;;;;;;;;;5033902;28;20539;-57
2021/11/20 07:09:29;;;;;;;26.03;20.43;;;;;;;;;;5033998;28;20563;-58
2021/11/20 07:11:56;;;;;;;22.73;19.23;;;;;;;;;;5033823;28;21052;-57
2021/11/20 07:14:25;;;;;;;23.27;19.60;;;;;;;;;;5034117;28;20531;-57
2021/11/20 07:16:53;;;;;;;25.27;21.23;;;;;;;;;;5033989;28;20536;-57
2021/11/20 07:19:22;;;;;;;26.53;20.90;;;;;;;;;;5033721;28;20917;-57
2021/11/20 07:21:49;;;;;;;22.67;20.23;;;;;;;;;;5033772;28;20568;-58
2021/11/20 07:24:18;;;;;;;23.73;19.93;;;;;;;;;;5033961;28;20546;-57
2021/11/20 07:26:46;;;;;;;25.53;20.63;;;;;;;;;;5033989;28;20527;-58
2021/11/20 07:29:14;;;;;;;25.90;19.90;;;;;;;;;;5033244;28;20922;-58
2021/11/20 07:31:41;;;;;;;24.73;21.20;;;;;;;;;;5033288;28;20504;-58
2021/11/20 07:34:09;;;;;;;26.13;22.43;;;;;;;;;;5033569;28;20531;-58
2021/11/20 07:36:38;;;;;;;38.80;21.83;;;;;;;;;;5033321;28;20449;-58
2021/11/20 07:39:06;;;;;;;25.17;19.50;;;;;;;;;;5033296;28;20532;-58
2021/11/20 07:41:34;;;;;;;28.50;21.50;;;;;;;;;;5032540;28;20601;-58
2021/11/20 07:44:02;;;;;;;23.40;20.77;;;;;;;;;;5033220;28;20536;-58
2021/11/20 07:46:29;;;;;;;24.80;21.30;;;;;;;;;;5033544;28;20481;-58
2021/11/20 07:48:57;;;;;;;27.47;21.30;;;;;;;;;;5033032;28;20515;-58
2021/11/20 07:51:25;;;;;;;21.57;19.20;;;;;;;;;;5033105;28;20469;-57
2021/11/20 07:53:54;;;;;;;21.60;19.23;;;;;;;;;;5033048;28;21035;-58
2021/11/20 07:56:22;;;;;;;20.17;17.97;;;;;;;;;;5033449;28;20544;-57
2021/11/20 07:58:50;;;;;;;22.17;17.50;;;;;;;;;;5033290;28;20543;-57
2021/11/20 08:01:18;;;;;;;20.30;17.40;;;;;;;;;;5032579;28;20461;-57
2021/11/20 08:03:46;;;;;;;19.73;17.03;;;;;;;;;;5032577;28;20496;-57
2021/11/20 08:06:13;;;;;;;21.10;17.67;;;;;;;;;;5032924;28;20456;-58
2021/11/20 08:08:41;;;;;;;20.57;16.60;;;;;;;;;;5033084;28;20530;-58
2021/11/20 08:11:10;;;;;;;17.27;15.47;;;;;;;;;;5033177;28;20560;-57
2021/11/20 08:13:37;;;;;;;18.53;16.60;;;;;;;;;;5033446;28;20472;-57
2021/11/20 08:16:05;;;;;;;18.30;15.23;;;;;;;;;;5032892;28;20469;-57
2021/11/20 08:18:33;;;;;;;15.83;13.90;;;;;;;;;;5032955;28;20996;-57
2021/11/20 08:21:03;;;;;;;16.50;14.30;;;;;;;;;;5032488;28;20591;-57
2021/11/20 08:23:30;;;;;;;16.23;14.40;;;;;;;;;;5034002;28;20442;-57
2021/11/20 08:25:58;;;;;;;15.50;13.90;;;;;;;;;;5032750;28;20503;-58
2021/11/20 08:28:29;;;;;;;17.60;14.27;;;;;;;;;;5032624;28;20568;-58
2021/11/20 08:30:57;;;;;;;17.30;14.90;;;;;;;;;;5032982;28;20841;-58
2021/11/20 08:33:24;;;;;;;17.97;15.43;;;;;;;;;;5032971;28;20869;-57
2021/11/20 08:35:52;;;;;;;16.60;14.20;;;;;;;;;;5032451;28;20536;-58
2021/11/20 08:38:20;;;;;;;18.60;15.50;;;;;;;;;;5033109;28;20549;-58
2021/11/20 08:40:48;;;;;;;14.97;12.87;;;;;;;;;;5032734;28;20603;-58
2021/11/20 08:43:16;;;;;;;17.40;13.97;;;;;;;;;;5032838;28;20483;-58
2021/11/20 08:45:47;;;;;;;16.80;13.40;;;;;;;;;;5032876;28;20544;-58
2021/11/20 08:48:16;;;;;;;15.77;13.67;;;;;;;;;;5033099;28;20467;-58
2021/11/20 08:50:44;;;;;;;14.50;13.10;;;;;;;;;;5033167;28;20582;-58
2021/11/20 08:53:12;;;;;;;14.70;13.20;;;;;;;;;;5032601;28;20491;-58
2021/11/20 08:55:39;;;;;;;16.07;12.77;;;;;;;;;;5036335;28;20477;-57
2021/11/20 08:58:07;;;;;;;13.37;12.03;;;;;;;;;;5036078;28;20495;-58
2021/11/20 09:00:37;;;;;;;17.33;12.83;;;;;;;;;;5036428;28;20496;-59
2021/11/20 09:03:07;;;;;;;17.57;13.37;;;;;;;;;;5036072;28;20535;-58
2021/11/20 09:05:37;;;;;;;14.10;12.70;;;;;;;;;;5036328;28;20767;-58
2021/11/20 09:08:06;;;;;;;14.60;12.33;;;;;;;;;;5035954;28;20551;-58
2021/11/20 09:10:35;;;;;;;13.60;12.20;;;;;;;;;;5035961;28;20473;-58
2021/11/20 09:13:04;;;;;;;15.87;13.80;;;;;;;;;;5036177;28;20491;-58
2021/11/20 09:15:33;;;;;;;13.73;12.33;;;;;;;;;;5035804;28;20651;-58
2021/11/20 09:18:01;;;;;;;14.50;12.70;;;;;;;;;;5035949;28;20531;-58
2021/11/20 09:20:30;;;;;;;12.97;11.70;;;;;;;;;;5035618;28;20464;-58
2021/11/20 09:22:58;;;;;;;13.70;12.30;;;;;;;;;;5036137;28;20462;-58
2021/11/20 09:25:26;;;;;;;13.90;11.80;;;;;;;;;;5036713;28;20451;-58
2021/11/20 09:27:53;;;;;;;14.20;12.60;;;;;;;;;;5035718;28;20538;-58
2021/11/20 09:30:23;;;;;;;15.53;13.00;;;;;;;;;;5035678;28;20514;-58
2021/11/20 09:32:51;;;;;;;14.33;12.93;;;;;;;;;;5035520;28;20541;-58
2021/11/20 09:35:18;;;;;;;17.23;13.50;;;;;;;;;;5035735;28;20477;-58
2021/11/20 09:37:47;;;;;;;15.03;12.57;;;;;;;;;;5035516;28;20490;-58
2021/11/20 09:40:15;;;;;;;13.60;12.10;;;;;;;;;;5035762;28;20532;-59
2021/11/20 09:42:45;;;;;;;13.47;12.07;;;;;;;;;;5036471;28;20545;-58
2021/11/20 09:45:13;;;;;;;14.27;12.70;;;;;;;;;;5035576;28;20536;-58
2021/11/20 09:47:44;;;;;;;13.87;12.47;;;;;;;;;;5035348;28;20532;-59
2021/11/20 09:50:13;;;;;;;15.03;12.70;;;;;;;;;;5035048;28;20572;-58
2021/11/20 09:52:41;;;;;;;14.77;12.70;;;;;;;;;;5035596;28;20465;-57
2021/11/20 09:55:12;;;;;;;15.57;14.07;;;;;;;;;;5035678;28;20455;-57
2021/11/20 09:57:42;;;;;;;15.40;13.50;;;;;;;;;;5035890;28;20460;-57
2021/11/20 10:00:22;;;;;;;12.83;11.60;;;;;;;;;;5035035;28;20520;-57
2021/11/20 10:02:50;;;;;;;14.33;12.83;;;;;;;;;;5035258;28;20523;-57
2021/11/20 10:05:20;;;;;;;14.50;12.03;;;;;;;;;;5034915;28;20978;-57
2021/11/20 10:07:50;;;;;;;12.97;11.67;;;;;;;;;;5034953;28;20957;-58
2021/11/20 10:10:23;;;;;;;15.13;13.63;;;;;;;;;;5034698;28;20577;-57
2021/11/20 10:12:51;;;;;;;13.63;12.27;;;;;;;;;;5034895;28;20943;-57
2021/11/20 10:15:20;;;;;;;16.40;13.13;;;;;;;;;;5034880;28;20539;-58
2021/11/20 10:17:49;;;;;;;15.73;11.80;;;;;;;;;;5034740;28;20448;-57
2021/11/20 10:20:21;;;;;;;14.87;12.53;;;;;;;;;;5035128;28;20561;-57
2021/11/20 10:22:54;;;;;;;12.60;11.40;;;;;;;;;;5036025;28;20532;-58
2021/11/20 10:25:26;;;;;;;12.07;10.77;;;;;;;;;;5034544;28;20466;-57
2021/11/20 10:28:02;;;;;;;12.73;11.43;;;;;;;;;;5035330;28;20517;-58
2021/11/20 10:30:35;;;;;;;13.33;11.93;;;;;;;;;;5035129;28;20517;-57
2021/11/20 10:33:18;;;;;;;13.93;11.03;;;;;;;;;;5034278;28;20935;-58
2021/11/20 10:35:48;;;;;;;13.20;11.80;;;;;;;;;;5034282;28;20495;-58
2021/11/20 10:38:30;;;;;;;14.10;11.67;;;;;;;;;;5034109;28;20456;-58
2021/11/20 10:41:01;;;;;;;12.30;11.00;;;;;;;;;;5034790;28;20920;-58
2021/11/20 10:43:30;;;;;;;12.23;11.10;;;;;;;;;;5034590;28;20435;-57
2021/11/20 10:46:03;;;;;;;13.20;11.87;;;;;;;;;;5034527;28;20487;-58
2021/11/20 10:48:34;;;;;;;13.40;11.87;;;;;;;;;;5034491;28;20821;-58
2021/11/20 10:51:30;;;;;;;14.60;11.90;;;;;;;;;;5034164;28;20869;-58
2021/11/20 10:54:11;;;;;;;15.97;11.17;;;;;;;;;;5034085;28;20500;-58
2021/11/20 10:56:44;;;;;;;13.63;12.17;;;;;;;;;;5033850;28;20468;-58
2021/11/20 10:59:25;;;;;;;12.70;11.30;;;;;;;;;;5034085;28;20520;-58
2021/11/20 11:02:16;;;;;;;12.23;10.93;;;;;;;;;;5034481;28;20468;-56
2021/11/20 11:04:57;;;;;;;15.07;12.23;;;;;;;;;;5019199;28;20485;-59
2021/11/20 11:07:27;;;;;;;12.10;10.47;;;;;;;;;;5034339;28;20524;-56
2021/11/20 11:09:57;;;;;;;12.53;11.00;;;;;;;;;;5034027;28;20574;-56
2021/11/20 11:12:29;;;;;;;12.47;11.17;;;;;;;;;;5034633;28;20553;-58
2021/11/20 11:15:11;;;;;;;11.23;10.03;;;;;;;;;;5033790;28;20476;-58
2021/11/20 11:17:46;;;;;;;11.87;9.60;;;;;;;;;;5032945;28;20501;-58
2021/11/20 11:20:20;;;;;;;13.13;11.47;;;;;;;;;;5033676;28;20530;-58
2021/11/20 11:22:49;;;;;;;12.67;11.33;;;;;;;;;;5033604;28;20488;-58
2021/11/20 11:25:20;;;;;;;12.90;10.33;;;;;;;;;;5034066;28;20523;-56
2021/11/20 11:28:06;;;;;;;13.13;10.77;;;;;;;;;;5033907;28;20428;-58
2021/11/20 11:30:38;;;;;;;13.67;11.07;;;;;;;;;;5033485;28;20568;-58
2021/11/20 11:33:05;;;;;;;11.60;10.40;;;;;;;;;;5033612;28;20997;-58
2021/11/20 11:35:37;;;;;;;14.23;10.17;;;;;;;;;;5033419;28;21019;-57
2021/11/20 11:38:37;;;;;;;13.67;11.87;;;;;;;;;;5033167;28;20974;-57
2021/11/20 11:41:10;;;;;;;10.80;9.50;;;;;;;;;;4972301;28;20554;-57
2021/11/20 11:43:40;;;;;;;11.53;10.33;;;;;;;;;;4973102;28;20558;-57
2021/11/20 11:46:23;;;;;;;11.77;10.57;;;;;;;;;;5004066;28;20513;-56
2021/11/20 11:49:11;;;;;;;11.60;9.53;;;;;;;;;;5033167;28;20461;-57
2021/11/20 11:51:43;;;;;;;15.73;11.30;;;;;;;;;;5026862;28;20571;-56
2021/11/20 11:54:22;;;;;;;11.33;9.60;;;;;;;;;;5032952;28;20429;-57
2021/11/20 11:57:01;;;;;;;12.83;10.77;;;;;;;;;;5032902;28;20511;-58
2021/11/20 11:59:39;;;;;;;12.00;10.10;;;;;;;;;;5033062;28;20492;-55
2021/11/20 12:02:16;;;;;;;12.07;9.77;;;;;;;;;;5033678;28;20557;-56
2021/11/20 12:04:44;;;;;;;11.53;10.20;;;;;;;;;;5032693;28;20533;-57
2021/11/20 12:07:14;;;;;;;13.30;10.77;;;;;;;;;;5032726;28;20529;-56
2021/11/20 12:09:47;;;;;;;12.77;11.10;;;;;;;;;;5032843;28;20576;-57
2021/11/20 12:12:15;;;;;;;14.77;12.23;;;;;;;;;;5032564;28;20591;-58
2021/11/20 12:14:44;;;;;;;14.60;11.90;;;;;;;;;;5032864;28;20536;-56
2021/11/20 12:17:36;;;;;;;13.57;11.87;;;;;;;;;;5032641;28;20840;-56
2021/11/20 12:20:13;;;;;;;15.67;12.00;;;;;;;;;;5018423;28;20541;-58
2021/11/20 12:22:46;;;;;;;16.90;13.57;;;;;;;;;;5032559;28;20456;-56
2021/11/20 12:25:23;;;;;;;19.90;13.47;;;;;;;;;;5032907;28;20767;-56
2021/11/20 12:27:54;;;;;;;16.60;13.03;;;;;;;;;;5032885;28;20464;-56
2021/11/20 12:30:33;;;;;;;17.23;13.70;;;;;;;;;;5035809;28;20564;-56
2021/11/20 12:33:20;;;;;;;20.20;13.80;;;;;;;;;;5036758;28;20512;-56
2021/11/20 12:36:11;;;;;;;19.30;14.83;;;;;;;;;;5036596;28;20479;-56
2021/11/20 12:38:47;;;;;;;21.43;16.50;;;;;;;;;;5021187;28;20499;-57
2021/11/20 12:41:19;;;;;;;21.53;15.83;;;;;;;;;;5036165;28;20503;-56
2021/11/20 12:43:56;;;;;;;23.90;15.40;;;;;;;;;;5036549;28;20514;-56
2021/11/20 12:46:44;;;;;;;22.93;16.40;;;;;;;;;;5036028;28;20512;-56
2021/11/20 12:49:15;;;;;;;21.57;16.67;;;;;;;;;;5036644;28;20457;-56
2021/11/20 12:52:00;;;;;;;27.37;18.00;;;;;;;;;;5036163;28;20468;-56
2021/11/20 12:54:41;;;;;;;25.17;16.93;;;;;;;;;;5036537;28;20787;-57
2021/11/20 12:57:12;;;;;;;27.10;17.07;;;;;;;;;;5036213;28;20422;-57
2021/11/20 12:59:44;;;;;;;25.63;17.77;;;;;;;;;;5036470;28;20462;-57
2021/11/20 13:02:28;;;;;;;24.13;16.77;;;;;;;;;;5035935;28;20549;-56
2021/11/20 13:04:56;;;;;;;24.67;17.33;;;;;;;;;;5036502;28;20529;-57
2021/11/20 13:07:25;;;;;;;26.37;17.07;;;;;;;;;;5036008;28;20541;-57
2021/11/20 13:09:55;;;;;;;24.83;16.40;;;;;;;;;;5035775;28;21052;-56
2021/11/20 13:12:26;;;;;;;22.83;16.63;;;;;;;;;;5036071;28;20571;-55
2021/11/20 13:15:12;;;;;;;19.97;14.80;;;;;;;;;;5035796;28;20469;-57
2021/11/20 13:17:48;;;;;;;22.03;14.50;;;;;;;;;;5035705;28;20454;-57
2021/11/20 13:20:19;;;;;;;28.10;17.87;;;;;;;;;;5035663;28;20484;-56
2021/11/20 13:22:47;;;;;;;27.60;19.10;;;;;;;;;;5035835;28;20432;-58
2021/11/20 13:25:17;;;;;;;28.40;18.40;;;;;;;;;;5035450;28;21027;-57
2021/11/20 13:27:56;;;;;;;28.20;17.90;;;;;;;;;;5035508;28;20596;-54
2021/11/20 13:30:26;;;;;;;31.73;21.03;;;;;;;;;;5036067;28;20579;-57
2021/11/20 13:32:54;;;;;;;32.53;21.97;;;;;;;;;;5035501;28;20480;-56
2021/11/20 13:35:23;;;;;;;39.13;22.50;;;;;;;;;;5035457;28;21004;-57
2021/11/20 13:37:54;;;;;;;33.43;21.80;;;;;;;;;;5035478;28;20544;-56
2021/11/20 13:40:23;;;;;;;33.20;22.73;;;;;;;;;;5034624;28;20544;-57
2021/11/20 13:42:50;;;;;;;36.90;23.50;;;;;;;;;;5035362;28;20449;-57
2021/11/20 13:45:19;;;;;;;33.13;23.57;;;;;;;;;;5035570;28;20535;-57
2021/11/20 13:47:47;;;;;;;33.57;21.90;;;;;;;;;;5035082;28;20449;-57
2021/11/20 13:50:15;;;;;;;33.40;22.40;;;;;;;;;;5035107;28;20918;-57
2021/11/20 13:52:43;;;;;;;34.20;23.30;;;;;;;;;;5035321;28;20494;-56
2021/11/20 13:55:10;;;;;;;29.73;20.50;;;;;;;;;;5035867;28;20454;-56
2021/11/20 13:57:40;;;;;;;31.47;20.03;;;;;;;;;;5035315;28;20477;-56
2021/11/20 14:00:11;;;;;;;31.50;20.20;;;;;;;;;;5034902;28;20817;-56
2021/11/20 14:02:45;;;;;;;36.70;21.67;;;;;;;;;;5035193;28;20440;-56
2021/11/20 14:05:13;;;;;;;29.63;19.80;;;;;;;;;;5035225;28;20493;-56
2021/11/20 14:07:41;;;;;;;30.57;21.13;;;;;;;;;;5034757;28;20545;-56
2021/11/20 14:10:12;;;;;;;31.53;21.60;;;;;;;;;;5034590;28;20527;-57
2021/11/20 14:12:51;;;;;;;28.60;19.87;;;;;;;;;;5034608;28;20434;-56
2021/11/20 14:15:19;;;;;;;33.70;23.67;;;;;;;;;;5035428;28;20532;-56
2021/11/20 14:17:48;;;;;;;28.73;21.47;;;;;;;;;;5035079;28;20579;-56
2021/11/20 14:20:17;;;;;;;30.20;20.93;;;;;;;;;;5034642;28;20528;-57
2021/11/20 14:22:47;;;;;;;31.30;21.87;;;;;;;;;;5034297;28;20450;-56
2021/11/20 14:25:21;;;;;;;31.93;21.60;;;;;;;;;;5034455;28;20909;-56
2021/11/20 14:27:56;;;;;;;32.50;22.35;;;;;;;;;;5034491;28;20535;-56
2021/11/20 14:30:23;;;;;;;35.60;22.37;;;;;;;;;;5034537;28;20320;-54
2021/11/20 14:32:52;;;;;;;32.97;22.00;;;;;;;;;;5034286;28;20449;-56
2021/11/20 14:35:20;;;;;;;33.27;22.73;;;;;;;;;;5035020;28;20536;-56
2021/11/20 14:37:58;;;;;;;33.20;22.40;;;;;;;;;;5034537;28;20444;-56
2021/11/20 14:40:25;;;;;;;34.33;23.87;;;;;;;;;;5034302;28;20468;-57
2021/11/20 14:42:52;;;;;;;34.10;22.70;;;;;;;;;;5034048;28;20556;-56
2021/11/20 14:45:21;;;;;;;32.20;24.27;;;;;;;;;;5034185;28;20481;-56